sensor_id;sensor_type;location;lat;lon;timestamp;P1;P2;P0
39714;PMS5003;54166;53.172;-6.552;2022-12-07T00:00:53;13;13;
39714;PMS5003;54166;53.172;-6.552;2022-12-07T00:03:20;16;16;
39714;PMS5003;54166;53.172;-6.552;2022-12-07T00:05:47;14;13;
39714;PMS5003;54166;53.172;-6.552;2022-12-07T00:08:14;13;12;
39714;PMS5003;54166;53.172;-6.552;2022-12-07T00:10:41;13;11;
39714;PMS5003;54166;53.172;-6.552;2022-12-07T00:13:08;14;12;
39714;PMS5003;54166;53.172;-6.552;2022-12-07T00:15:36;15;15;
39714;PMS5003;54166;53.172;-6.552;2022-12-07T00:18:03;14;13;
39714;PMS5003;54166;53.172;-6.552;2022-12-07T00:20:29;15;14;
39714;PMS5003;54166;53.172;-6.552;2022-12-07T00:22:56;15;13;
39714;PMS5003;54166;53.172;-6.552;2022-12-07T00:25:24;11;11;
39714;PMS5003;54166;53.172;-6.552;2022-12-07T00:27:52;15;13;
39714;PMS5003;54166;53.172;-6.552;2022-12-07T00:30:19;20;20;
39714;PMS5003;54166;53.172;-6.552;2022-12-07T00:32:46;18;17;
39714;PMS5003;54166;53.172;-6.552;2022-12-07T00:35:14;17;16;
39714;PMS5003;54166;53.172;-6.552;2022-12-07T00:37:41;20;18;
39714;PMS5003;54166;53.172;-6.552;2022-12-07T00:40:09;15;14;
39714;PMS5003;54166;53.172;-6.552;2022-12-07T00:42:37;16;15;
39714;PMS5003;54166;53.172;-6.552;2022-12-07T00:45:04;12;12;
39714;PMS5003;54166;53.172;-6.552;2022-12-07T00:47:32;19;15;
39714;PMS5003;54166;53.172;-6.552;2022-12-07T00:50:00;16;16;
39714;PMS5003;54166;53.172;-6.552;2022-12-07T00:52:27;15;15;
39714;PMS5003;54166;53.172;-6.552;2022-12-07T00:54:54;16;15;
39714;PMS5003;54166;53.172;-6.552;2022-12-07T00:57:21;14;14;
39714;PMS5003;54166;53.172;-6.552;2022-12-07T00:59:48;15;14;
39714;PMS5003;54166;53.172;-6.552;2022-12-07T01:02:15;15;14;
39714;PMS5003;54166;53.172;-6.552;2022-12-07T01:04:42;16;15;
39714;PMS5003;54166;53.172;-6.552;2022-12-07T01:07:09;13;12;
39714;PMS5003;54166;53.172;-6.552;2022-12-07T01:09:37;13;13;
39714;PMS5003;54166;53.172;-6.552;2022-12-07T01:12:04;12;12;
39714;PMS5003;54166;53.172;-6.552;2022-12-07T01:14:32;11;11;
39714;PMS5003;54166;53.172;-6.552;2022-12-07T01:17:00;12;11;
39714;PMS5003;54166;53.172;-6.552;2022-12-07T01:19:27;14;14;
39714;PMS5003;54166;53.172;-6.552;2022-12-07T01:21:53;12;12;
39714;PMS5003;54166;53.172;-6.552;2022-12-07T01:24:21;11;11;
39714;PMS5003;54166;53.172;-6.552;2022-12-07T01:26:48;13;12;
39714;PMS5003;54166;53.172;-6.552;2022-12-07T01:29:16;13;13;
39714;PMS5003;54166;53.172;-6.552;2022-12-07T01:31:43;13;12;
39714;PMS5003;54166;53.172;-6.552;2022-12-07T01:34:10;13;12;
39714;PMS5003;54166;53.172;-6.552;2022-12-07T01:36:37;13;12;
39714;PMS5003;54166;53.172;-6.552;2022-12-07T01:39:05;13;12;
39714;PMS5003;54166;53.172;-6.552;2022-12-07T01:41:36;12;12;
39714;PMS5003;54166;53.172;-6.552;2022-12-07T01:44:08;10;10;
39714;PMS5003;54166;53.172;-6.552;2022-12-07T01:46:40;12;11;
39714;PMS5003;54166;53.172;-6.552;2022-12-07T01:49:10;11;11;
39714;PMS5003;54166;53.172;-6.552;2022-12-07T01:51:41;15;13;
39714;PMS5003;54166;53.172;-6.552;2022-12-07T01:54:11;12;9;
39714;PMS5003;54166;53.172;-6.552;2022-12-07T01:56:40;8;8;
39714;PMS5003;54166;53.172;-6.552;2022-12-07T01:59:14;11;11;
39714;PMS5003;54166;53.172;-6.552;2022-12-07T02:01:43;10;10;
39714;PMS5003;54166;53.172;-6.552;2022-12-07T02:04:10;9;8;
39714;PMS5003;54166;53.172;-6.552;2022-12-07T02:06:38;11;10;
39714;PMS5003;54166;53.172;-6.552;2022-12-07T02:09:06;9;9;
39714;PMS5003;54166;53.172;-6.552;2022-12-07T02:11:34;12;11;
39714;PMS5003;54166;53.172;-6.552;2022-12-07T02:14:02;11;11;
39714;PMS5003;54166;53.172;-6.552;2022-12-07T02:16:31;9;9;
39714;PMS5003;54166;53.172;-6.552;2022-12-07T02:19:18;10;10;
39714;PMS5003;54166;53.172;-6.552;2022-12-07T18:20:06;11;10;
39714;PMS5003;54166;53.172;-6.552;2022-12-07T18:22:34;10;9;
39714;PMS5003;54166;53.172;-6.552;2022-12-07T18:25:01;8;8;
39714;PMS5003;54166;53.172;-6.552;2022-12-07T18:27:29;13;12;
39714;PMS5003;54166;53.172;-6.552;2022-12-07T18:29:56;10;9;
39714;PMS5003;54166;53.172;-6.552;2022-12-07T18:32:23;11;10;
39714;PMS5003;54166;53.172;-6.552;2022-12-07T18:34:49;9;8;
39714;PMS5003;54166;53.172;-6.552;2022-12-07T18:37:16;11;10;
39714;PMS5003;54166;53.172;-6.552;2022-12-07T18:39:43;9;8;
39714;PMS5003;54166;53.172;-6.552;2022-12-07T18:42:10;13;10;
39714;PMS5003;54166;53.172;-6.552;2022-12-07T18:44:37;7;7;
39714;PMS5003;54166;53.172;-6.552;2022-12-07T18:47:04;9;9;
39714;PMS5003;54166;53.172;-6.552;2022-12-07T18:49:31;6;6;
39714;PMS5003;54166;53.172;-6.552;2022-12-07T18:51:58;16;13;
39714;PMS5003;54166;53.172;-6.552;2022-12-07T18:54:26;16;13;
39714;PMS5003;54166;53.172;-6.552;2022-12-07T18:56:53;12;11;
39714;PMS5003;54166;53.172;-6.552;2022-12-07T18:59:21;11;9;
39714;PMS5003;54166;53.172;-6.552;2022-12-07T19:01:49;7;7;
39714;PMS5003;54166;53.172;-6.552;2022-12-07T19:04:19;10;9;
39714;PMS5003;54166;53.172;-6.552;2022-12-07T19:06:47;9;8;
39714;PMS5003;54166;53.172;-6.552;2022-12-07T19:09:15;9;8;
39714;PMS5003;54166;53.172;-6.552;2022-12-07T19:11:43;11;11;
39714;PMS5003;54166;53.172;-6.552;2022-12-07T19:14:10;11;10;
39714;PMS5003;54166;53.172;-6.552;2022-12-07T19:16:38;11;9;
39714;PMS5003;54166;53.172;-6.552;2022-12-07T19:19:07;13;10;
39714;PMS5003;54166;53.172;-6.552;2022-12-07T19:21:35;10;10;
39714;PMS5003;54166;53.172;-6.552;2022-12-07T19:24:03;11;9;
39714;PMS5003;54166;53.172;-6.552;2022-12-07T19:26:30;8;8;
39714;PMS5003;54166;53.172;-6.552;2022-12-07T19:28:58;10;9;
39714;PMS5003;54166;53.172;-6.552;2022-12-07T19:31:26;9;8;
39714;PMS5003;54166;53.172;-6.552;2022-12-07T19:33:52;10;10;
39714;PMS5003;54166;53.172;-6.552;2022-12-07T19:36:19;8;8;
39714;PMS5003;54166;53.172;-6.552;2022-12-07T19:38:46;10;9;
39714;PMS5003;54166;53.172;-6.552;2022-12-07T19:41:16;10;10;
39714;PMS5003;54166;53.172;-6.552;2022-12-07T19:43:42;8;8;
39714;PMS5003;54166;53.172;-6.552;2022-12-07T19:46:09;9;9;
39714;PMS5003;54166;53.172;-6.552;2022-12-07T19:48:37;8;6;
39714;PMS5003;54166;53.172;-6.552;2022-12-07T19:51:04;8;8;
39714;PMS5003;54166;53.172;-6.552;2022-12-07T19:53:31;103;100;
39714;PMS5003;54166;53.172;-6.552;2022-12-07T19:55:59;80;77;
39714;PMS5003;54166;53.172;-6.552;2022-12-07T19:58:27;93;90;
39714;PMS5003;54166;53.172;-6.552;2022-12-07T20:00:54;86;86;
39714;PMS5003;54166;53.172;-6.552;2022-12-07T20:03:21;90;90;
39714;PMS5003;54166;53.172;-6.552;2022-12-07T20:05:48;73;70;
39714;PMS5003;54166;53.172;-6.552;2022-12-07T20:08:15;70;68;
39714;PMS5003;54166;53.172;-6.552;2022-12-07T20:10:43;59;58;
39714;PMS5003;54166;53.172;-6.552;2022-12-07T20:13:10;60;58;
39714;PMS5003;54166;53.172;-6.552;2022-12-07T20:15:37;60;58;
39714;PMS5003;54166;53.172;-6.552;2022-12-07T20:18:04;53;53;
39714;PMS5003;54166;53.172;-6.552;2022-12-07T20:20:32;54;54;
39714;PMS5003;54166;53.172;-6.552;2022-12-07T20:23:00;48;48;
39714;PMS5003;54166;53.172;-6.552;2022-12-07T20:25:28;49;49;
39714;PMS5003;54166;53.172;-6.552;2022-12-07T20:27:55;46;46;
39714;PMS5003;54166;53.172;-6.552;2022-12-07T20:30:22;42;41;
39714;PMS5003;54166;53.172;-6.552;2022-12-07T20:32:49;38;38;
39714;PMS5003;54166;53.172;-6.552;2022-12-07T20:35:17;40;40;
39714;PMS5003;54166;53.172;-6.552;2022-12-07T20:37:44;34;33;
39714;PMS5003;54166;53.172;-6.552;2022-12-07T20:40:11;35;35;
39714;PMS5003;54166;53.172;-6.552;2022-12-07T20:42:39;32;31;
39714;PMS5003;54166;53.172;-6.552;2022-12-07T20:45:07;32;30;
39714;PMS5003;54166;53.172;-6.552;2022-12-07T20:47:35;32;31;
39714;PMS5003;54166;53.172;-6.552;2022-12-07T20:50:03;103;95;
39714;PMS5003;54166;53.172;-6.552;2022-12-07T20:52:31;108;101;
39714;PMS5003;54166;53.172;-6.552;2022-12-07T20:54:59;68;65;
39714;PMS5003;54166;53.172;-6.552;2022-12-07T20:57:26;67;64;
39714;PMS5003;54166;53.172;-6.552;2022-12-07T20:59:53;57;53;
39714;PMS5003;54166;53.172;-6.552;2022-12-07T21:02:21;50;48;
39714;PMS5003;54166;53.172;-6.552;2022-12-07T21:04:49;47;43;
39714;PMS5003;54166;53.172;-6.552;2022-12-07T21:07:16;45;42;
39714;PMS5003;54166;53.172;-6.552;2022-12-07T21:09:44;41;39;
39714;PMS5003;54166;53.172;-6.552;2022-12-07T21:12:12;36;35;
39714;PMS5003;54166;53.172;-6.552;2022-12-07T21:14:39;41;38;
39714;PMS5003;54166;53.172;-6.552;2022-12-07T21:17:06;39;35;
39714;PMS5003;54166;53.172;-6.552;2022-12-07T21:19:34;34;33;
39714;PMS5003;54166;53.172;-6.552;2022-12-07T21:22:03;31;29;
39714;PMS5003;54166;53.172;-6.552;2022-12-07T21:24:31;30;26;
39714;PMS5003;54166;53.172;-6.552;2022-12-07T21:26:58;31;28;
39714;PMS5003;54166;53.172;-6.552;2022-12-07T21:29:25;22;21;
39714;PMS5003;54166;53.172;-6.552;2022-12-07T21:31:53;23;23;
39714;PMS5003;54166;53.172;-6.552;2022-12-07T21:34:21;25;23;
39714;PMS5003;54166;53.172;-6.552;2022-12-07T21:36:49;23;23;
39714;PMS5003;54166;53.172;-6.552;2022-12-07T21:39:16;24;24;
39714;PMS5003;54166;53.172;-6.552;2022-12-07T21:41:43;21;21;
39714;PMS5003;54166;53.172;-6.552;2022-12-07T21:44:10;22;20;
39714;PMS5003;54166;53.172;-6.552;2022-12-07T21:46:38;23;21;
39714;PMS5003;54166;53.172;-6.552;2022-12-07T21:49:07;20;17;
39714;PMS5003;54166;53.172;-6.552;2022-12-07T21:51:37;17;15;
39714;PMS5003;54166;53.172;-6.552;2022-12-07T21:54:06;18;17;
39714;PMS5003;54166;53.172;-6.552;2022-12-07T21:56:34;18;17;
39714;PMS5003;54166;53.172;-6.552;2022-12-07T21:59:03;16;15;
39714;PMS5003;54166;53.172;-6.552;2022-12-07T22:01:33;18;18;
39714;PMS5003;54166;53.172;-6.552;2022-12-07T22:04:03;15;15;
39714;PMS5003;54166;53.172;-6.552;2022-12-07T22:06:32;20;19;
39714;PMS5003;54166;53.172;-6.552;2022-12-07T22:09:00;15;15;
39714;PMS5003;54166;53.172;-6.552;2022-12-07T22:11:29;16;16;
39714;PMS5003;54166;53.172;-6.552;2022-12-07T22:13:55;15;14;
39714;PMS5003;54166;53.172;-6.552;2022-12-07T22:16:23;14;14;
39714;PMS5003;54166;53.172;-6.552;2022-12-07T22:18:51;11;11;
39714;PMS5003;54166;53.172;-6.552;2022-12-07T22:21:19;16;14;
39714;PMS5003;54166;53.172;-6.552;2022-12-07T22:23:46;14;14;
39714;PMS5003;54166;53.172;-6.552;2022-12-07T22:26:14;13;13;
39714;PMS5003;54166;53.172;-6.552;2022-12-07T22:28:43;15;13;
39714;PMS5003;54166;53.172;-6.552;2022-12-07T22:31:12;11;11;
39714;PMS5003;54166;53.172;-6.552;2022-12-07T22:33:41;16;15;
39714;PMS5003;54166;53.172;-6.552;2022-12-07T22:36:09;15;15;
39714;PMS5003;54166;53.172;-6.552;2022-12-07T22:38:37;16;15;
39714;PMS5003;54166;53.172;-6.552;2022-12-07T22:41:07;18;15;
39714;PMS5003;54166;53.172;-6.552;2022-12-07T22:43:35;16;15;
39714;PMS5003;54166;53.172;-6.552;2022-12-07T22:46:02;14;14;
39714;PMS5003;54166;53.172;-6.552;2022-12-07T22:48:30;13;13;
39714;PMS5003;54166;53.172;-6.552;2022-12-07T22:50:58;14;13;
39714;PMS5003;54166;53.172;-6.552;2022-12-07T22:53:25;13;12;
39714;PMS5003;54166;53.172;-6.552;2022-12-07T22:55:52;16;16;
39714;PMS5003;54166;53.172;-6.552;2022-12-07T22:58:20;17;16;
39714;PMS5003;54166;53.172;-6.552;2022-12-07T23:00:48;13;13;
39714;PMS5003;54166;53.172;-6.552;2022-12-07T23:03:15;14;14;
39714;PMS5003;54166;53.172;-6.552;2022-12-07T23:05:43;12;11;
39714;PMS5003;54166;53.172;-6.552;2022-12-07T23:08:11;14;13;
39714;PMS5003;54166;53.172;-6.552;2022-12-07T23:10:40;15;14;
39714;PMS5003;54166;53.172;-6.552;2022-12-07T23:13:08;19;19;
39714;PMS5003;54166;53.172;-6.552;2022-12-07T23:15:37;19;17;
39714;PMS5003;54166;53.172;-6.552;2022-12-07T23:18:04;18;18;
39714;PMS5003;54166;53.172;-6.552;2022-12-07T23:20:31;17;16;
39714;PMS5003;54166;53.172;-6.552;2022-12-07T23:22:58;16;15;
39714;PMS5003;54166;53.172;-6.552;2022-12-07T23:25:25;21;18;
39714;PMS5003;54166;53.172;-6.552;2022-12-07T23:27:53;16;16;
39714;PMS5003;54166;53.172;-6.552;2022-12-07T23:30:21;17;17;
39714;PMS5003;54166;53.172;-6.552;2022-12-07T23:32:48;16;16;
39714;PMS5003;54166;53.172;-6.552;2022-12-07T23:35:15;20;19;
39714;PMS5003;54166;53.172;-6.552;2022-12-07T23:37:42;18;16;
39714;PMS5003;54166;53.172;-6.552;2022-12-07T23:40:09;16;15;
39714;PMS5003;54166;53.172;-6.552;2022-12-07T23:42:36;19;17;
39714;PMS5003;54166;53.172;-6.552;2022-12-07T23:45:03;18;16;
39714;PMS5003;54166;53.172;-6.552;2022-12-07T23:47:31;21;20;
39714;PMS5003;54166;53.172;-6.552;2022-12-07T23:49:59;21;19;
39714;PMS5003;54166;53.172;-6.552;2022-12-07T23:52:26;20;17;
39714;PMS5003;54166;53.172;-6.552;2022-12-07T23:54:55;22;20;
39714;PMS5003;54166;53.172;-6.552;2022-12-07T23:57:22;20;20;
39714;PMS5003;54166;53.172;-6.552;2022-12-07T23:59:50;26;23;
